Arkansas City, Kansas
Current Conditions -  °F | °C
As of 7:54 AM on Thursday 23 Oct 2014 (Local Time) from KWLD Reporting Station
Broken Clouds Broken Clouds  
Wind Chill: 61°   Ceiling: 4800
Heat Index: 61°   Visibility: 7mi
Dew Point: 59°   Wind: 8mph
Humidity: 93%   Direction: 170°S
Pressure: 30.11"   Gusts: NA
Location:  37.06°N, 97.04°W
Report Text: KWLD 231254Z AUTO 17007KT 7SM BKN048 16/15 A3011 RMK AO2 SLP188 T01610150
Loading
Personal Weather Stations






























Interactive Weather Map
Tropical Storm Tracking
New forecast layout! Learn more

10-Day Weather Forecast

Advertisements
Track Severe Weather on mobile